createdAt,value
2018-07-23T00:01:30.462Z,21.99
2018-07-23T00:03:59.227Z,21.93
2018-07-23T00:06:27.965Z,21.91
2018-07-23T00:08:56.808Z,21.90
2018-07-23T00:11:25.578Z,21.88
2018-07-23T00:13:54.313Z,21.87
2018-07-23T00:16:23.028Z,21.91
2018-07-23T00:18:52.342Z,21.92
2018-07-23T00:21:21.087Z,21.89
2018-07-23T00:23:49.830Z,21.88
2018-07-23T00:26:18.601Z,21.89
2018-07-23T00:28:47.345Z,21.94
2018-07-23T00:31:16.087Z,21.93
2018-07-23T00:33:44.874Z,21.98
2018-07-23T00:36:13.625Z,21.92
2018-07-23T00:38:42.376Z,21.98
2018-07-23T00:41:11.274Z,21.97
2018-07-23T00:43:40.063Z,21.91
2018-07-23T00:46:08.869Z,21.93
2018-07-23T00:48:37.625Z,21.89
2018-07-23T00:51:06.467Z,21.92
2018-07-23T00:53:35.250Z,21.89
2018-07-23T00:56:04.071Z,21.87
2018-07-23T00:58:32.882Z,21.87
2018-07-23T01:01:01.648Z,21.87
2018-07-23T01:03:30.426Z,21.80
2018-07-23T01:05:59.190Z,21.81
2018-07-23T01:08:27.953Z,21.79
2018-07-23T01:10:56.766Z,21.76
2018-07-23T01:13:25.509Z,21.73
2018-07-23T01:15:54.273Z,21.71
2018-07-23T01:18:23.053Z,21.71
2018-07-23T01:20:51.841Z,21.67
2018-07-23T01:23:20.597Z,21.68
2018-07-23T01:25:49.349Z,21.68
2018-07-23T01:28:18.451Z,21.64
2018-07-23T01:30:47.228Z,21.67
2018-07-23T01:33:23.247Z,21.64
2018-07-23T01:35:52.046Z,21.62
2018-07-23T01:38:20.814Z,21.61
2018-07-23T01:40:49.570Z,21.62
2018-07-23T01:43:18.301Z,21.55
2018-07-23T01:45:47.249Z,21.51
2018-07-23T01:48:16.052Z,21.51
2018-07-23T01:50:44.851Z,21.44
2018-07-23T01:53:13.619Z,21.43
2018-07-23T01:55:42.410Z,21.41
2018-07-23T01:58:11.158Z,21.43
2018-07-23T02:00:39.993Z,21.48
2018-07-23T02:03:08.762Z,21.45
2018-07-23T02:05:37.563Z,21.44
2018-07-23T02:08:06.353Z,21.42
2018-07-23T02:10:35.178Z,21.43
2018-07-23T02:13:04.043Z,21.40
2018-07-23T02:15:32.827Z,21.34
2018-07-23T02:18:01.608Z,21.28
2018-07-23T02:20:30.382Z,21.26
2018-07-23T02:22:59.153Z,21.19
2018-07-23T02:25:27.989Z,21.15
2018-07-23T02:27:56.767Z,21.04
2018-07-23T02:30:25.527Z,20.99
2018-07-23T02:32:54.330Z,20.91
2018-07-23T02:35:23.105Z,20.84
2018-07-23T02:37:51.933Z,20.79
2018-07-23T02:40:20.754Z,20.71
2018-07-23T02:42:49.598Z,20.64
2018-07-23T02:45:18.368Z,20.57
2018-07-23T02:47:47.186Z,20.52
2018-07-23T02:50:15.989Z,20.51
2018-07-23T02:52:44.773Z,20.52
2018-07-23T02:55:13.574Z,20.55
2018-07-23T02:57:42.389Z,20.60
2018-07-23T03:00:11.486Z,20.65
2018-07-23T03:02:40.307Z,20.67
2018-07-23T03:05:09.529Z,20.73
2018-07-23T03:07:38.355Z,20.77
2018-07-23T03:10:07.505Z,20.80
2018-07-23T03:12:36.328Z,20.80
2018-07-23T03:15:06.727Z,20.81
2018-07-23T03:17:35.495Z,20.84
2018-07-23T03:20:04.618Z,20.90
2018-07-23T03:22:33.381Z,20.95
2018-07-23T03:25:02.139Z,20.93
2018-07-23T03:27:31.011Z,20.90
2018-07-23T03:29:59.781Z,20.87
2018-07-23T03:32:28.550Z,20.86
2018-07-23T03:34:57.358Z,20.82
2018-07-23T03:37:26.266Z,20.90
2018-07-23T03:39:55.082Z,20.96
2018-07-23T03:42:24.026Z,20.87
2018-07-23T03:44:52.799Z,20.81
2018-07-23T03:47:21.645Z,20.81
2018-07-23T03:49:50.681Z,20.83
2018-07-23T03:52:19.498Z,20.85
2018-07-23T03:54:48.266Z,20.89
2018-07-23T03:57:17.162Z,20.90
2018-07-23T03:59:45.940Z,20.90
2018-07-23T04:02:14.964Z,20.92
2018-07-23T04:04:43.709Z,20.96
2018-07-23T04:07:12.499Z,21.05
2018-07-23T04:09:41.629Z,21.14
2018-07-23T04:12:10.418Z,21.17
2018-07-23T04:14:39.161Z,21.19
2018-07-23T04:17:08.292Z,21.19
2018-07-23T04:19:37.105Z,21.23
2018-07-23T04:22:06.026Z,21.31
2018-07-23T04:24:34.825Z,21.34
2018-07-23T04:27:03.689Z,21.39
2018-07-23T04:29:32.445Z,21.35
2018-07-23T04:32:01.423Z,21.32
2018-07-23T04:34:30.180Z,21.25
2018-07-23T04:36:58.944Z,21.21
2018-07-23T04:39:27.713Z,21.14
2018-07-23T04:41:56.549Z,21.15
2018-07-23T04:44:25.702Z,21.21
2018-07-23T04:46:54.474Z,21.20
2018-07-23T04:49:23.308Z,21.26
2018-07-23T04:51:52.313Z,21.36
2018-07-23T04:54:21.126Z,21.61
2018-07-23T04:56:49.920Z,22.01
2018-07-23T04:59:18.862Z,22.79
2018-07-23T05:01:47.668Z,23.92
2018-07-23T05:04:16.391Z,25.03
2018-07-23T05:06:45.206Z,25.94
2018-07-23T05:09:13.995Z,26.77
2018-07-23T05:11:42.792Z,27.16
2018-07-23T05:14:12.099Z,27.60
2018-07-23T05:16:41.076Z,28.40
2018-07-23T05:19:09.870Z,28.30
2018-07-23T05:21:38.668Z,28.00
2018-07-23T05:24:07.518Z,27.92
2018-07-23T05:26:36.493Z,28.03
2018-07-23T05:29:05.281Z,27.92
2018-07-23T05:31:34.073Z,27.64
2018-07-23T05:34:02.850Z,27.58
2018-07-23T05:36:31.653Z,27.91
2018-07-23T05:39:00.395Z,27.76
2018-07-23T05:41:29.170Z,27.93
2018-07-23T05:43:57.965Z,27.95
2018-07-23T05:46:26.734Z,27.77
2018-07-23T05:48:55.537Z,27.70
2018-07-23T05:51:24.250Z,27.77
2018-07-23T05:53:52.961Z,27.38
2018-07-23T05:56:21.704Z,27.07
2018-07-23T05:58:50.474Z,26.73
2018-07-23T06:01:19.490Z,26.30
2018-07-23T06:03:48.278Z,26.02
2018-07-23T06:06:17.099Z,25.75
2018-07-23T06:08:45.854Z,25.70
2018-07-23T06:11:14.566Z,25.58
2018-07-23T06:13:43.726Z,25.39
2018-07-23T06:16:12.500Z,25.17
2018-07-23T06:18:41.317Z,24.99
2018-07-23T06:21:10.054Z,25.21
2018-07-23T06:23:38.784Z,25.23
2018-07-23T06:26:07.590Z,25.15
2018-07-23T06:28:36.393Z,25.07
2018-07-23T06:31:05.154Z,25.02
2018-07-23T06:33:34.002Z,24.85
2018-07-23T06:36:03.046Z,24.66
2018-07-23T06:38:31.775Z,24.53
2018-07-23T06:41:00.542Z,24.61
2018-07-23T06:43:29.314Z,24.68
2018-07-23T06:45:58.100Z,24.61
2018-07-23T06:48:26.863Z,24.38
2018-07-23T06:50:55.626Z,24.27
2018-07-23T06:53:24.357Z,24.09
2018-07-23T06:55:53.142Z,24.08
2018-07-23T06:58:21.871Z,24.08
2018-07-23T07:00:50.734Z,24.15
2018-07-23T07:03:19.494Z,24.17
2018-07-23T07:05:48.414Z,24.22
2018-07-23T07:08:17.119Z,24.17
2018-07-23T07:10:45.850Z,24.16
2018-07-23T07:13:14.628Z,24.14
2018-07-23T07:15:43.361Z,24.08
2018-07-23T07:18:12.398Z,24.12
2018-07-23T07:20:41.250Z,24.10
2018-07-23T07:23:09.979Z,24.16
2018-07-23T07:25:38.724Z,24.24
2018-07-23T07:28:07.490Z,24.30
2018-07-23T07:30:36.298Z,24.34
2018-07-23T07:33:05.360Z,24.41
2018-07-23T07:35:34.130Z,24.40
2018-07-23T07:38:02.961Z,24.42
2018-07-23T07:40:31.846Z,24.50
2018-07-23T07:43:00.654Z,24.59
2018-07-23T07:45:29.415Z,24.71
2018-07-23T07:47:58.231Z,24.73
2018-07-23T07:50:27.097Z,24.80
2018-07-23T07:52:55.834Z,24.85
2018-07-23T07:55:24.595Z,24.84
2018-07-23T07:57:53.394Z,24.82
2018-07-23T08:00:22.161Z,24.84
2018-07-23T08:02:50.926Z,25.06
2018-07-23T08:05:19.774Z,25.13
2018-07-23T08:07:48.606Z,25.18
2018-07-23T08:10:17.452Z,25.03
2018-07-23T08:12:46.231Z,25.06
2018-07-23T08:15:15.040Z,25.18
2018-07-23T08:17:43.839Z,25.30
2018-07-23T08:20:12.891Z,25.30
2018-07-23T08:22:41.684Z,25.30
2018-07-23T08:25:10.557Z,25.24
2018-07-23T08:27:39.491Z,25.29
2018-07-23T08:30:08.513Z,25.34
2018-07-23T08:32:37.376Z,25.41
2018-07-23T08:35:06.342Z,25.42
2018-07-23T08:37:35.047Z,25.47
2018-07-23T08:40:03.877Z,25.60
2018-07-23T08:42:32.634Z,25.68
2018-07-23T08:45:01.455Z,25.67
2018-07-23T08:47:30.339Z,25.61
2018-07-23T08:49:59.234Z,25.71
2018-07-23T08:52:28.061Z,25.78
2018-07-23T08:54:56.847Z,25.75
2018-07-23T08:57:26.007Z,25.74
2018-07-23T08:59:54.924Z,25.70
2018-07-23T09:02:23.679Z,25.71
2018-07-23T09:04:52.534Z,25.83
2018-07-23T09:07:21.290Z,25.98
2018-07-23T09:09:50.050Z,25.99
2018-07-23T09:12:18.814Z,26.05
2018-07-23T09:14:47.630Z,26.13
2018-07-23T09:17:16.391Z,26.12
2018-07-23T09:19:45.336Z,26.22
2018-07-23T09:22:14.155Z,26.32
2018-07-23T09:24:43.459Z,26.40
2018-07-23T09:27:12.283Z,26.27
2018-07-23T09:29:41.009Z,26.34
2018-07-23T09:32:09.762Z,26.36
2018-07-23T09:34:38.525Z,26.40
2018-07-23T09:37:07.297Z,26.43
2018-07-23T09:39:36.065Z,26.56
2018-07-23T09:42:04.833Z,26.74
2018-07-23T09:44:33.562Z,26.83
2018-07-23T09:47:02.422Z,26.83
2018-07-23T09:49:31.181Z,26.70
2018-07-23T09:52:00.065Z,26.73
2018-07-23T09:54:29.019Z,26.51
2018-07-23T09:56:57.818Z,26.32
2018-07-23T09:59:26.588Z,26.16
2018-07-23T10:01:55.308Z,26.09
2018-07-23T10:04:24.106Z,25.94
2018-07-23T10:06:52.875Z,25.90
2018-07-23T10:09:21.689Z,25.88
2018-07-23T10:11:50.408Z,25.81
2018-07-23T10:14:19.182Z,25.63
2018-07-23T10:16:48.026Z,25.26
2018-07-23T10:19:16.833Z,25.12
2018-07-23T10:21:45.663Z,25.05
2018-07-23T10:24:14.423Z,24.76
2018-07-23T10:26:43.144Z,24.12
2018-07-23T10:29:11.921Z,23.77
2018-07-23T10:31:40.722Z,23.60
2018-07-23T10:34:09.478Z,23.37
2018-07-23T10:36:38.347Z,23.19
2018-07-23T10:39:09.071Z,22.97
2018-07-23T10:41:37.850Z,22.78
2018-07-23T10:44:07.145Z,22.27
2018-07-23T10:46:35.919Z,21.71
2018-07-23T10:49:04.709Z,21.55
2018-07-23T10:51:33.483Z,21.54
2018-07-23T10:54:02.588Z,21.43
2018-07-23T10:56:31.379Z,21.44
2018-07-23T10:59:00.115Z,21.56
2018-07-23T11:01:28.834Z,21.57
2018-07-23T11:03:57.927Z,21.57
2018-07-23T11:06:26.681Z,21.65
2018-07-23T11:08:55.443Z,21.64
2018-07-23T11:11:24.195Z,21.60
2018-07-23T11:13:52.950Z,21.66
2018-07-23T11:16:21.742Z,21.58
2018-07-23T11:18:50.478Z,21.65
2018-07-23T11:21:19.265Z,21.75
2018-07-23T11:23:48.069Z,21.83
2018-07-23T11:26:17.214Z,22.01
2018-07-23T11:28:46.111Z,22.23
2018-07-23T11:31:14.852Z,22.50
2018-07-23T11:33:44.363Z,22.78
2018-07-23T11:36:13.082Z,23.04
2018-07-23T11:38:41.823Z,23.32
2018-07-23T11:41:10.656Z,23.65
2018-07-23T11:43:40.059Z,24.05
2018-07-23T11:46:08.828Z,24.40
2018-07-23T11:48:37.540Z,24.74
2018-07-23T11:51:06.398Z,25.05
2018-07-23T11:53:35.212Z,25.18
2018-07-23T11:56:04.168Z,25.34
2018-07-23T11:58:33.248Z,25.52
2018-07-23T12:01:02.081Z,25.53
2018-07-23T12:03:30.882Z,25.30
2018-07-23T12:05:59.765Z,25.42
2018-07-23T12:08:28.513Z,25.63
2018-07-23T12:10:57.342Z,25.79
2018-07-23T12:13:26.710Z,25.92
2018-07-23T12:15:55.532Z,26.14
2018-07-23T12:18:24.735Z,26.33
2018-07-23T12:20:53.466Z,26.48
2018-07-23T12:23:22.310Z,26.59
2018-07-23T12:25:51.097Z,26.81
2018-07-23T12:28:19.862Z,26.92
2018-07-23T12:30:48.641Z,27.31
2018-07-23T12:33:17.436Z,27.64
2018-07-23T12:35:46.198Z,27.66
2018-07-23T12:38:15.334Z,27.78
2018-07-23T12:40:44.081Z,28.00
2018-07-23T12:43:12.890Z,28.08
2018-07-23T12:45:41.687Z,28.17
2018-07-23T12:48:10.438Z,28.06
2018-07-23T12:50:39.593Z,28.32
2018-07-23T12:53:08.366Z,28.51
2018-07-23T12:55:37.181Z,28.45
2018-07-23T12:58:05.970Z,28.32
2018-07-23T13:00:34.763Z,28.12
2018-07-23T13:03:03.528Z,27.98
2018-07-23T13:05:32.557Z,27.72
2018-07-23T13:08:03.191Z,27.13
2018-07-23T13:10:32.090Z,26.85
2018-07-23T13:13:00.938Z,26.78
2018-07-23T13:15:29.682Z,26.69
2018-07-23T13:17:58.431Z,26.54
2018-07-23T13:20:27.268Z,26.40
2018-07-23T13:22:56.058Z,25.51
2018-07-23T13:25:24.895Z,24.63
2018-07-23T13:27:53.723Z,24.16
2018-07-23T13:30:22.506Z,23.79
2018-07-23T13:32:51.427Z,23.50
2018-07-23T13:35:22.090Z,23.42
2018-07-23T13:37:50.894Z,23.51
2018-07-23T13:40:19.676Z,23.63
2018-07-23T13:42:48.443Z,23.67
2018-07-23T13:45:17.279Z,23.75
2018-07-23T13:47:46.117Z,23.63
2018-07-23T13:50:14.974Z,23.56
2018-07-23T13:52:43.768Z,23.49
2018-07-23T13:55:17.859Z,23.13
2018-07-23T13:57:46.732Z,22.91
2018-07-23T14:00:15.845Z,22.88
2018-07-23T14:02:45.006Z,22.90
2018-07-23T14:05:13.815Z,22.95
2018-07-23T14:07:42.559Z,22.86
2018-07-23T14:10:11.307Z,22.71
2018-07-23T14:12:40.101Z,22.49
2018-07-23T14:15:09.011Z,22.28
2018-07-23T14:17:37.925Z,22.23
2018-07-23T14:20:07.140Z,22.26
2018-07-23T14:22:35.908Z,22.25
2018-07-23T14:25:04.934Z,22.07
2018-07-23T14:27:33.662Z,21.81
2018-07-23T14:30:02.517Z,22.12
2018-07-23T14:32:31.277Z,22.24
2018-07-23T14:35:00.081Z,22.17
2018-07-23T14:37:28.841Z,22.32
2018-07-23T14:39:57.606Z,22.36
2018-07-23T14:42:26.380Z,22.41
2018-07-23T14:44:55.131Z,22.34
2018-07-23T14:47:23.892Z,22.28
2018-07-23T14:49:52.789Z,22.47
2018-07-23T14:52:21.581Z,22.65
2018-07-23T14:54:50.412Z,22.84
2018-07-23T14:57:19.597Z,23.01
2018-07-23T14:59:48.329Z,23.11
2018-07-23T15:02:17.163Z,23.27
2018-07-23T15:04:45.905Z,23.50
2018-07-23T15:07:14.750Z,23.67
2018-07-23T15:09:43.635Z,23.56
2018-07-23T15:12:12.442Z,23.36
2018-07-23T15:14:41.231Z,23.41
2018-07-23T15:17:10.117Z,23.43
2018-07-23T15:19:38.989Z,23.47
2018-07-23T15:22:08.122Z,23.58
2018-07-23T15:24:36.920Z,23.43
2018-07-23T15:27:05.765Z,23.34
2018-07-23T15:29:34.588Z,23.28
2018-07-23T15:32:03.408Z,23.25
2018-07-23T15:34:32.158Z,23.40
2018-07-23T15:37:03.769Z,23.40
2018-07-23T15:39:32.581Z,23.47
2018-07-23T15:42:01.389Z,23.51
2018-07-23T15:44:30.493Z,23.60
2018-07-23T15:46:59.112Z,23.62
2018-07-23T15:49:27.911Z,23.50
2018-07-23T15:51:56.761Z,23.42
2018-07-23T15:54:25.640Z,23.48
2018-07-23T15:56:54.423Z,23.53
2018-07-23T15:59:23.397Z,23.50
2018-07-23T16:01:52.194Z,23.56
2018-07-23T16:04:20.994Z,23.53
2018-07-23T16:06:52.263Z,23.48
2018-07-23T16:09:21.043Z,23.17
2018-07-23T16:11:49.835Z,23.28
2018-07-23T16:14:18.579Z,23.28
2018-07-23T16:16:47.331Z,23.34
2018-07-23T16:19:16.066Z,23.38
2018-07-23T16:21:44.880Z,23.42
2018-07-23T16:24:13.662Z,23.37
2018-07-23T16:26:42.544Z,23.45
2018-07-23T16:29:11.366Z,23.62
2018-07-23T16:31:40.139Z,23.69
2018-07-23T16:34:09.049Z,23.78
2018-07-23T16:36:37.838Z,23.79
2018-07-23T16:39:09.791Z,23.77
2018-07-23T16:41:38.583Z,23.68
2018-07-23T16:44:07.902Z,23.52
2018-07-23T16:46:36.864Z,23.38
2018-07-23T16:49:05.759Z,23.27
2018-07-23T16:51:34.555Z,23.21
2018-07-23T16:54:03.375Z,23.16
2018-07-23T16:56:32.179Z,23.17
2018-07-23T16:59:00.998Z,23.00
2018-07-23T17:01:29.722Z,22.83
2018-07-23T17:03:58.584Z,22.24
2018-07-23T17:06:27.492Z,22.03
2018-07-23T17:08:56.263Z,21.85
2018-07-23T17:11:25.099Z,21.55
2018-07-23T17:13:53.921Z,21.52
2018-07-23T17:16:22.665Z,21.40
2018-07-23T17:18:51.517Z,21.28
2018-07-23T17:21:23.337Z,21.07
2018-07-23T17:23:52.156Z,20.77
2018-07-23T17:26:20.908Z,20.57
2018-07-23T17:28:49.721Z,20.50
2018-07-23T17:31:18.463Z,20.59
2018-07-23T17:33:47.324Z,20.71
2018-07-23T17:36:16.132Z,20.75
2018-07-23T17:38:45.489Z,20.75
2018-07-23T17:41:14.566Z,20.84
2018-07-23T17:43:43.367Z,20.91
2018-07-23T17:46:12.188Z,20.89
2018-07-23T17:48:40.988Z,20.79
2018-07-23T17:51:09.964Z,20.39
2018-07-23T17:53:38.803Z,20.12
2018-07-23T17:56:07.787Z,19.99
2018-07-23T17:58:36.609Z,19.92
2018-07-23T18:01:05.388Z,19.85
2018-07-23T18:03:34.275Z,19.84
2018-07-23T18:06:03.383Z,19.82
2018-07-23T18:08:32.174Z,19.74
2018-07-23T18:11:01.016Z,19.65
2018-07-23T18:13:29.822Z,19.50
2018-07-23T18:15:58.637Z,19.60
2018-07-23T18:18:28.659Z,19.36
2018-07-23T18:20:57.484Z,19.23
2018-07-23T18:23:27.092Z,19.35
2018-07-23T18:26:03.425Z,19.49
2018-07-23T18:28:32.334Z,19.56
2018-07-23T18:31:02.618Z,19.63
2018-07-23T18:33:31.517Z,19.70
2018-07-23T18:36:00.419Z,19.77
2018-07-23T18:38:29.482Z,19.81
2018-07-23T18:40:58.461Z,19.87
2018-07-23T18:43:27.297Z,19.90
2018-07-23T18:45:56.840Z,19.94
2018-07-23T18:49:36.753Z,19.95
2018-07-23T18:52:05.678Z,19.96
2018-07-23T18:54:35.009Z,19.93
2018-07-23T18:57:05.224Z,19.92
2018-07-23T18:59:34.466Z,19.93
2018-07-23T19:02:05.095Z,19.94
2018-07-23T19:04:34.773Z,19.85
2018-07-23T19:07:03.624Z,19.86
2018-07-23T19:09:32.525Z,19.87
2018-07-23T19:12:01.589Z,19.90
2018-07-23T19:14:30.454Z,19.90
2018-07-23T19:17:00.292Z,19.92
2018-07-23T19:19:29.154Z,19.95
2018-07-23T19:21:58.253Z,19.84
2018-07-23T19:24:27.096Z,19.84
2018-07-23T19:26:57.285Z,19.81
2018-07-23T19:29:26.469Z,19.73
2018-07-23T19:31:56.142Z,19.72
2018-07-23T19:34:30.923Z,19.71
2018-07-23T19:36:59.821Z,19.75
2018-07-23T19:39:28.663Z,19.70
2018-07-23T19:41:57.413Z,19.57
2018-07-23T19:44:26.384Z,19.58
2018-07-23T19:46:55.256Z,19.57
2018-07-23T19:49:24.009Z,19.50
2018-07-23T19:51:52.831Z,19.53
2018-07-23T19:54:21.612Z,19.47
2018-07-23T19:56:50.438Z,19.51
2018-07-23T19:59:19.378Z,19.54
2018-07-23T20:01:48.166Z,19.59
2018-07-23T20:04:17.737Z,19.67
2018-07-23T20:06:48.177Z,19.66
2018-07-23T20:09:17.038Z,19.61
2018-07-23T20:11:46.107Z,19.55
2018-07-23T20:14:14.884Z,19.59
2018-07-23T20:16:43.976Z,19.64
2018-07-23T20:19:12.803Z,19.56
2018-07-23T20:21:41.595Z,19.48
2018-07-23T20:24:10.381Z,19.44
2018-07-23T20:26:39.200Z,19.37
2018-07-23T20:29:08.098Z,19.28
2018-07-23T20:31:36.920Z,19.17
2018-07-23T20:34:05.724Z,19.13
2018-07-23T20:36:34.491Z,19.13
2018-07-23T20:39:03.395Z,19.16
2018-07-23T20:41:32.364Z,19.22
2018-07-23T20:44:01.142Z,19.27
2018-07-23T20:46:29.919Z,19.30
2018-07-23T20:48:58.619Z,19.31
2018-07-23T20:51:27.779Z,19.31
2018-07-23T20:53:56.689Z,19.23
2018-07-23T20:56:25.456Z,19.18
2018-07-23T20:58:54.193Z,19.15
2018-07-23T21:01:22.974Z,19.15
2018-07-23T21:03:51.826Z,19.11
2018-07-23T21:06:20.727Z,19.11
2018-07-23T21:08:49.539Z,19.15
2018-07-23T21:11:18.253Z,19.18
2018-07-23T21:13:46.968Z,19.26
2018-07-23T21:16:15.752Z,19.26
2018-07-23T21:18:44.600Z,19.19
2018-07-23T21:21:13.355Z,19.18
2018-07-23T21:23:42.067Z,19.16
2018-07-23T21:26:11.631Z,19.19
2018-07-23T21:28:40.410Z,19.20
2018-07-23T21:31:09.627Z,19.22
2018-07-23T21:33:38.834Z,19.25
2018-07-23T21:36:07.565Z,19.23
2018-07-23T21:38:36.384Z,19.23
2018-07-23T21:41:05.244Z,19.27
2018-07-23T21:43:34.042Z,19.25
2018-07-23T21:46:02.813Z,19.18
2018-07-23T21:48:31.600Z,18.99
2018-07-23T21:51:00.525Z,18.90
2018-07-23T21:53:29.300Z,18.86
2018-07-23T21:55:58.067Z,18.88
2018-07-23T21:58:26.848Z,18.78
2018-07-23T22:00:56.602Z,18.78
2018-07-23T22:03:25.419Z,18.74
2018-07-23T22:05:54.526Z,18.67
2018-07-23T22:08:23.277Z,18.64
2018-07-23T22:10:52.058Z,18.60
2018-07-23T22:13:20.884Z,18.51
2018-07-23T22:15:49.638Z,18.44
2018-07-23T22:18:19.108Z,18.44
2018-07-23T22:20:47.815Z,18.56
2018-07-23T22:23:16.509Z,18.64
2018-07-23T22:25:45.305Z,18.66
2018-07-23T22:28:14.071Z,18.68
2018-07-23T22:30:42.830Z,18.68
2018-07-23T22:33:11.601Z,18.71
2018-07-23T22:35:41.065Z,18.69
2018-07-23T22:38:09.888Z,18.73
2018-07-23T22:40:38.605Z,18.73
2018-07-23T22:43:07.345Z,18.74
2018-07-23T22:45:36.077Z,18.74
2018-07-23T22:48:05.254Z,18.76
2018-07-23T22:50:33.993Z,18.82
2018-07-23T22:53:02.666Z,18.80
2018-07-23T22:55:31.486Z,18.83
2018-07-23T22:58:00.249Z,18.81
2018-07-23T23:00:29.022Z,18.72
2018-07-23T23:02:57.761Z,18.62
2018-07-23T23:05:26.510Z,18.64
2018-07-23T23:07:55.319Z,18.61
2018-07-23T23:10:24.246Z,18.52
2018-07-23T23:12:53.203Z,18.51
2018-07-23T23:15:22.107Z,18.51
2018-07-23T23:17:51.280Z,18.43
2018-07-23T23:20:20.100Z,18.49
2018-07-23T23:22:49.021Z,18.51
2018-07-23T23:25:17.838Z,18.60
2018-07-23T23:27:46.739Z,18.66
2018-07-23T23:30:15.627Z,18.73
2018-07-23T23:32:44.586Z,18.82
2018-07-23T23:35:13.384Z,18.79
2018-07-23T23:37:42.195Z,18.76
2018-07-23T23:40:10.954Z,18.73
2018-07-23T23:42:39.907Z,18.72
2018-07-23T23:45:09.063Z,18.72
2018-07-23T23:47:38.045Z,18.72
2018-07-23T23:50:07.593Z,18.72
2018-07-23T23:52:36.361Z,18.73
2018-07-23T23:55:05.266Z,18.74
2018-07-23T23:57:34.271Z,18.73
